Time;durP1;ratioP1;P1;durP2;ratioP2;P2;SDS_P1;SDS_P2;PMS_P1;PMS_P2;Temp;Humidity;BMP_temperature;BMP_pressure;BME280_temperature;BME280_humidity;BME280_pressure;Samples;Min_cycle;Max_cycle;Signal;HPM_P1;HPM_P2
2024/01/23 00:01:25;;;;;;;5.75;1.80;;;;;;;4.97;100.00;97460.56;4974381;28;20053;-71
2024/01/23 00:03:51;;;;;;;7.07;1.95;;;;;;;4.91;100.00;97463.72;4970108;28;20039;-72
2024/01/23 00:06:16;;;;;;;4.32;1.65;;;;;;;4.96;100.00;97464.41;4971719;28;20054;-71
2024/01/23 00:08:41;;;;;;;3.03;1.48;;;;;;;5.02;100.00;97465.06;4985430;28;20105;-71
2024/01/23 00:11:07;;;;;;;3.97;1.75;;;;;;;5.06;100.00;97473.38;4983723;28;20367;-71
2024/01/23 00:13:32;;;;;;;4.78;1.90;;;;;;;5.09;100.00;97476.28;4980215;28;20050;-70
2024/01/23 00:15:57;;;;;;;7.20;1.73;;;;;;;5.17;100.00;97472.03;4980096;28;20671;-71
2024/01/23 00:18:23;;;;;;;2.60;1.88;;;;;;;5.15;100.00;97463.41;4982366;28;20043;-71
2024/01/23 00:20:48;;;;;;;6.60;1.70;;;;;;;5.07;100.00;97475.78;4979859;28;20146;-71
2024/01/23 00:23:14;;;;;;;5.40;1.90;;;;;;;5.02;100.00;97481.34;4982923;28;20191;-72
2024/01/23 00:25:39;;;;;;;7.28;3.67;;;;;;;5.00;100.00;97470.00;4984943;28;20042;-71
2024/01/23 00:28:06;;;;;;;4.82;1.90;;;;;;;5.00;100.00;97474.63;4976700;28;20552;-71
2024/01/23 00:30:31;;;;;;;3.70;1.52;;;;;;;4.95;100.00;97470.13;4988665;28;20051;-72
2024/01/23 00:32:58;;;;;;;2.38;1.50;;;;;;;4.95;100.00;97484.53;4979090;28;20464;-71
2024/01/23 00:35:24;;;;;;;4.85;1.70;;;;;;;4.93;100.00;97478.63;4980632;28;20513;-71
2024/01/23 00:37:49;;;;;;;2.35;1.40;;;;;;;4.94;100.00;97482.91;4986624;28;20405;-69
2024/01/23 00:40:15;;;;;;;2.45;1.30;;;;;;;4.84;100.00;97472.31;4975167;28;20124;-72
2024/01/23 00:42:40;;;;;;;2.47;1.65;;;;;;;4.75;100.00;97485.03;4987981;28;20145;-71
2024/01/23 00:45:06;;;;;;;3.50;1.80;;;;;;;4.76;100.00;97478.50;4977533;28;20050;-70
2024/01/23 00:47:31;;;;;;;3.95;1.20;;;;;;;4.77;100.00;97477.38;4982793;28;20050;-71
2024/01/23 00:49:57;;;;;;;3.85;1.08;;;;;;;4.72;100.00;97472.88;4988316;28;20045;-71
2024/01/23 00:52:22;;;;;;;2.22;1.15;;;;;;;4.72;100.00;97469.38;4973756;28;20257;-71
2024/01/23 00:54:48;;;;;;;5.30;1.00;;;;;;;4.65;100.00;97471.72;4987422;28;20050;-71
2024/01/23 00:57:13;;;;;;;6.18;1.23;;;;;;;4.67;100.00;97474.94;4986327;28;20038;-72
2024/01/23 00:59:38;;;;;;;3.67;1.30;;;;;;;4.69;100.00;97483.56;4985490;28;20433;-71
2024/01/23 01:02:04;;;;;;;8.40;1.38;;;;;;;4.61;100.00;97479.69;4988811;28;20065;-71
2024/01/23 01:04:29;;;;;;;4.85;1.30;;;;;;;4.51;100.00;97475.28;4987434;28;20042;-72
2024/01/23 01:06:54;;;;;;;3.55;1.50;;;;;;;4.59;100.00;97490.00;5003769;28;20049;-71
2024/01/23 01:09:20;;;;;;;2.20;1.20;;;;;;;4.60;100.00;97506.00;4986217;28;21646;-71
2024/01/23 01:11:45;;;;;;;5.63;1.60;;;;;;;4.58;100.00;97505.50;4998033;28;20050;-72
2024/01/23 01:14:11;;;;;;;7.18;2.35;;;;;;;4.55;100.00;97514.25;4987763;28;20503;-73
2024/01/23 01:16:36;;;;;;;3.90;1.33;;;;;;;4.51;100.00;97526.03;4988348;28;20038;-70
2024/01/23 01:19:01;;;;;;;3.70;1.30;;;;;;;4.45;100.00;97525.34;4988368;28;20054;-69
2024/01/23 01:21:27;;;;;;;5.35;1.60;;;;;;;4.42;100.00;97519.72;4990063;28;20082;-70
2024/01/23 01:23:53;;;;;;;3.22;1.25;;;;;;;4.39;100.00;97521.13;4983555;28;20053;-72
2024/01/23 01:26:18;;;;;;;7.47;1.80;;;;;;;4.36;100.00;97527.19;4993151;28;20125;-71
2024/01/23 01:28:44;;;;;;;4.35;1.30;;;;;;;4.30;100.00;97542.75;4990001;28;20057;-72
2024/01/23 01:31:09;;;;;;;4.22;1.38;;;;;;;4.29;100.00;97540.38;4994674;28;20396;-72
2024/01/23 01:33:34;;;;;;;3.67;1.10;;;;;;;4.38;100.00;97557.53;4988022;28;20042;-73
2024/01/23 01:36:00;;;;;;;3.75;1.40;;;;;;;4.35;100.00;97556.19;5001119;28;20049;-73
2024/01/23 01:38:25;;;;;;;12.43;5.00;;;;;;;4.25;100.00;97559.16;4981316;28;20045;-72
2024/01/23 01:40:51;;;;;;;6.20;1.55;;;;;;;4.24;100.00;97551.31;4993989;28;20042;-72
2024/01/23 01:43:27;;;;;;;4.22;1.40;;;;;;;4.24;100.00;97546.69;4998193;28;20508;-72
2024/01/23 01:46:20;;;;;;;4.97;1.48;;;;;;;4.28;100.00;97555.03;4994583;28;20042;-71
2024/01/23 01:48:47;;;;;;;5.25;1.55;;;;;;;4.24;100.00;97562.97;4986332;28;20101;-70
2024/01/23 01:51:14;;;;;;;5.00;1.27;;;;;;;4.20;100.00;97557.34;4994906;28;20036;-70
2024/01/23 01:53:40;;;;;;;8.13;1.52;;;;;;;4.14;100.00;97555.03;4993402;28;20077;-72
2024/01/23 01:56:06;;;;;;;4.88;1.52;;;;;;;4.17;100.00;97543.59;4996770;28;20065;-70
2024/01/23 01:58:32;;;;;;;6.05;1.35;;;;;;;4.15;100.00;97557.44;4982490;28;20050;-71
2024/01/23 02:01:00;;;;;;;7.30;1.33;;;;;;;4.16;100.00;97566.38;4982235;28;20141;-73
2024/01/23 02:03:26;;;;;;;8.65;1.45;;;;;;;4.18;100.00;97551.44;4982087;28;20058;-73
2024/01/23 02:05:52;;;;;;;5.68;1.67;;;;;;;4.18;100.00;97550.63;4968927;28;20034;-73
2024/01/23 02:08:18;;;;;;;10.48;2.78;;;;;;;4.10;100.00;97562.19;4975776;28;20045;-72
2024/01/23 02:10:44;;;;;;;4.63;1.52;;;;;;;4.06;100.00;97553.84;4982041;28;20035;-72
2024/01/23 02:13:09;;;;;;;9.07;1.60;;;;;;;3.96;100.00;97546.75;4977614;28;20039;-72
2024/01/23 02:15:35;;;;;;;2.60;1.20;;;;;;;4.02;100.00;97544.72;4996898;28;20041;-73
2024/01/23 02:18:01;;;;;;;5.15;1.50;;;;;;;3.99;100.00;97554.25;4981487;28;20133;-72
2024/01/23 02:20:26;;;;;;;3.28;1.23;;;;;;;3.88;100.00;97554.78;4986858;28;20568;-71
2024/01/23 02:22:53;;;;;;;7.95;1.60;;;;;;;3.74;100.00;97552.06;4989391;28;20054;-72
2024/01/23 02:25:18;;;;;;;5.15;1.60;;;;;;;3.84;100.00;97546.44;4978213;28;20030;-71
2024/01/23 02:27:44;;;;;;;5.40;1.38;;;;;;;3.88;100.00;97549.34;4981963;28;20121;-72
2024/01/23 02:30:10;;;;;;;6.65;1.65;;;;;;;3.84;100.00;97557.28;4975913;28;20070;-72
2024/01/23 02:32:36;;;;;;;8.25;1.80;;;;;;;3.83;100.00;97548.34;4986922;28;20045;-72
2024/01/23 02:35:01;;;;;;;8.82;1.90;;;;;;;3.86;100.00;97540.72;4980661;28;20093;-72
2024/01/23 02:37:27;;;;;;;9.27;1.58;;;;;;;3.83;100.00;97536.69;4978048;28;20042;-71
2024/01/23 02:39:53;;;;;;;9.00;1.80;;;;;;;3.99;100.00;97529.06;4981760;28;20081;-71
2024/01/23 02:42:18;;;;;;;9.45;1.77;;;;;;;3.84;100.00;97532.91;4975945;28;20050;-71
2024/01/23 02:44:45;;;;;;;8.05;1.58;;;;;;;3.71;100.00;97522.84;4981573;28;20674;-71
2024/01/23 02:47:11;;;;;;;10.07;1.60;;;;;;;3.65;100.00;97530.28;4983847;28;20099;-71
2024/01/23 02:49:37;;;;;;;4.18;1.55;;;;;;;3.55;100.00;97547.53;4981423;28;20374;-72
2024/01/23 02:52:03;;;;;;;5.45;1.90;;;;;;;3.54;100.00;97553.25;4978614;28;20074;-70
2024/01/23 02:54:31;;;;;;;4.00;1.38;;;;;;;3.54;100.00;97550.53;4988341;28;20468;-71
2024/01/23 02:56:56;;;;;;;10.80;2.03;;;;;;;3.57;100.00;97544.53;4988551;28;20054;-70
2024/01/23 02:59:22;;;;;;;6.57;1.80;;;;;;;3.53;100.00;97541.63;4974093;28;20565;-70
2024/01/23 03:01:48;;;;;;;9.10;1.55;;;;;;;3.69;100.00;97535.91;4988602;28;20050;-69
2024/01/23 03:04:13;;;;;;;6.35;1.45;;;;;;;3.68;100.00;97542.44;4983099;28;20042;-70
2024/01/23 03:06:38;;;;;;;5.15;1.23;;;;;;;3.79;100.00;97554.66;4988502;28;20056;-69
2024/01/23 03:09:06;;;;;;;5.30;1.30;;;;;;;3.93;100.00;97539.22;4973493;28;20133;-70
2024/01/23 03:11:31;;;;;;;5.60;1.60;;;;;;;4.00;100.00;97536.88;4980823;28;20060;-69
2024/01/23 03:13:57;;;;;;;6.30;1.13;;;;;;;4.01;100.00;97541.19;4980426;28;20038;-70
2024/01/23 03:16:22;;;;;;;8.27;1.67;;;;;;;4.12;100.00;97555.34;4966911;28;20131;-70
2024/01/23 03:18:48;;;;;;;5.38;1.33;;;;;;;4.16;100.00;97560.94;4979604;28;20125;-70
2024/01/23 03:21:14;;;;;;;6.32;1.42;;;;;;;4.16;100.00;97550.09;4983176;28;20053;-70
2024/01/23 03:23:39;;;;;;;10.23;1.80;;;;;;;4.22;100.00;97554.34;4979956;28;20426;-69
2024/01/23 03:26:04;;;;;;;4.63;1.30;;;;;;;4.21;100.00;97566.28;4975382;28;20050;-70
2024/01/23 03:28:30;;;;;;;5.75;1.38;;;;;;;4.26;100.00;97557.25;4987127;28;20057;-70
2024/01/23 03:30:55;;;;;;;10.20;1.77;;;;;;;4.42;100.00;97566.66;4979699;28;20046;-70
2024/01/23 03:33:21;;;;;;;6.57;1.73;;;;;;;4.35;100.00;97558.91;4973592;28;20069;-70
2024/01/23 03:35:46;;;;;;;7.18;1.83;;;;;;;4.27;100.00;97562.38;4983201;28;20054;-69
2024/01/23 03:38:13;;;;;;;8.65;1.30;;;;;;;4.21;100.00;97561.66;4978896;28;20077;-70
2024/01/23 03:40:39;;;;;;;7.55;1.70;;;;;;;4.30;100.00;97567.16;4985342;28;20046;-70
2024/01/23 03:43:04;;;;;;;7.57;1.60;;;;;;;4.33;100.00;97569.28;4991162;28;20097;-70
2024/01/23 03:45:29;;;;;;;5.82;1.60;;;;;;;4.25;100.00;97583.56;4981082;28;20145;-70
2024/01/23 03:47:55;;;;;;;6.85;1.70;;;;;;;4.20;100.00;97592.59;4981123;28;20038;-70
2024/01/23 03:50:20;;;;;;;7.57;1.42;;;;;;;4.28;100.00;97598.41;4974204;28;20054;-70
2024/01/23 03:52:46;;;;;;;6.28;1.60;;;;;;;4.27;100.00;97594.06;4980070;28;20465;-70
2024/01/23 03:55:11;;;;;;;8.90;1.70;;;;;;;4.21;100.00;97596.94;4974805;28;20497;-70
2024/01/23 03:57:37;;;;;;;7.10;1.73;;;;;;;4.27;100.00;97607.63;4979569;28;20093;-70
2024/01/23 04:00:04;;;;;;;4.72;1.50;;;;;;;4.17;100.00;97617.59;4976343;28;20046;-71
2024/01/23 04:02:31;;;;;;;5.80;1.88;;;;;;;4.11;100.00;97609.88;4994587;28;20133;-70
2024/01/23 04:04:57;;;;;;;9.98;1.80;;;;;;;4.09;100.00;97612.91;4987419;28;20054;-70
2024/01/23 04:07:22;;;;;;;5.43;1.52;;;;;;;4.04;100.00;97615.69;4975433;28;20486;-67
2024/01/23 04:09:49;;;;;;;4.90;1.48;;;;;;;4.07;100.00;97612.41;4987153;28;20185;-70
2024/01/23 04:12:14;;;;;;;7.90;1.98;;;;;;;4.00;100.00;97618.22;4976431;28;20069;-70
2024/01/23 04:14:40;;;;;;;3.75;1.48;;;;;;;3.95;100.00;97629.16;4984739;28;20039;-69
2024/01/23 04:17:06;;;;;;;7.25;1.88;;;;;;;3.93;100.00;97625.16;4983019;28;20050;-69
2024/01/23 04:19:31;;;;;;;10.10;1.67;;;;;;;3.94;100.00;97618.59;4979158;28;20046;-70
2024/01/23 04:21:57;;;;;;;8.38;1.73;;;;;;;3.82;100.00;97648.94;4979951;28;20042;-69
2024/01/23 04:24:22;;;;;;;7.65;2.10;;;;;;;3.78;100.00;97647.91;4973077;28;20056;-70
2024/01/23 04:26:48;;;;;;;9.05;1.83;;;;;;;3.76;100.00;97639.25;4980206;28;20049;-69
2024/01/23 04:29:14;;;;;;;10.25;2.33;;;;;;;3.75;100.00;97643.88;4980688;28;20045;-69
2024/01/23 04:31:39;;;;;;;8.13;2.08;;;;;;;3.77;100.00;97644.38;4979163;28;20505;-70
2024/01/23 04:34:05;;;;;;;12.07;2.03;;;;;;;3.83;100.00;97651.34;4971956;28;20057;-69
2024/01/23 04:36:30;;;;;;;9.20;2.63;;;;;;;3.84;100.00;97649.44;4979683;28;20633;-70
2024/01/23 04:38:56;;;;;;;12.68;2.65;;;;;;;3.86;100.00;97651.84;4983700;28;20133;-70
2024/01/23 04:41:22;;;;;;;14.88;2.28;;;;;;;3.91;100.00;97652.53;5008640;22;20511;-70
2024/01/23 04:43:48;;;;;;;6.32;1.92;;;;;;;3.96;100.00;97651.63;5006188;28;20068;-71
2024/01/23 04:46:13;;;;;;;7.35;1.90;;;;;;;4.06;100.00;97653.34;4990246;28;20420;-70
2024/01/23 04:48:39;;;;;;;12.32;2.33;;;;;;;4.10;100.00;97657.06;5003762;28;20057;-71
2024/01/23 04:51:04;;;;;;;8.20;1.90;;;;;;;4.11;100.00;97662.19;4997503;28;20488;-69
2024/01/23 04:53:32;;;;;;;11.43;1.98;;;;;;;4.23;100.00;97672.53;4983568;28;20050;-70
2024/01/23 04:55:58;;;;;;;12.35;2.42;;;;;;;4.22;100.00;97670.94;4983645;28;20108;-71
2024/01/23 04:58:23;;;;;;;11.82;1.70;;;;;;;4.21;100.00;97675.56;4978470;28;20435;-71
2024/01/23 05:00:48;;;;;;;6.25;1.60;;;;;;;4.27;100.00;97680.84;4992522;28;20046;-70
2024/01/23 05:03:14;;;;;;;4.70;1.20;;;;;;;4.24;100.00;97684.19;4978517;28;20105;-71
2024/01/23 05:05:39;;;;;;;14.32;4.55;;;;;;;4.25;100.00;97669.50;4983079;28;20459;-71
2024/01/23 05:08:05;;;;;;;8.77;1.48;;;;;;;4.30;100.00;97680.25;4979430;28;20078;-70
2024/01/23 05:10:31;;;;;;;2.92;1.00;;;;;;;4.26;100.00;97671.94;4994058;28;20045;-70
2024/01/23 05:12:56;;;;;;;5.22;1.20;;;;;;;4.30;100.00;97685.69;4996292;28;20051;-70
2024/01/23 05:15:22;;;;;;;5.05;1.48;;;;;;;4.25;100.00;97678.47;4979310;28;20244;-71
2024/01/23 05:17:47;;;;;;;8.07;1.50;;;;;;;4.23;100.00;97680.66;4983930;28;20128;-71
2024/01/23 05:20:13;;;;;;;3.00;0.98;;;;;;;4.25;100.00;97675.75;4981295;28;20038;-71
2024/01/23 05:22:38;;;;;;;6.30;1.35;;;;;;;4.21;100.00;97675.56;4984461;28;20080;-69
2024/01/23 05:25:04;;;;;;;2.90;0.95;;;;;;;4.13;100.00;97670.03;4979058;28;20053;-70
2024/01/23 05:27:30;;;;;;;7.22;1.80;;;;;;;4.03;100.00;97662.88;4992550;28;20499;-71
2024/01/23 05:29:55;;;;;;;4.47;1.00;;;;;;;4.06;100.00;97659.56;4981426;28;20503;-70
2024/01/23 05:32:21;;;;;;;7.20;1.08;;;;;;;4.06;100.00;97678.56;4989016;28;20818;-72
2024/01/23 05:34:46;;;;;;;6.60;1.17;;;;;;;4.01;100.00;97684.84;5002983;28;20121;-72
2024/01/23 05:37:12;;;;;;;2.53;1.10;;;;;;;4.02;100.00;97680.25;4983676;28;20440;-70
2024/01/23 05:39:38;;;;;;;3.67;1.38;;;;;;;4.01;100.00;97692.19;4983918;28;20879;-72
2024/01/23 05:42:05;;;;;;;3.83;1.02;;;;;;;4.02;100.00;97691.91;4979461;28;20054;-70
2024/01/23 05:44:31;;;;;;;7.95;1.10;;;;;;;4.09;100.00;97704.25;4982398;28;20050;-71
2024/01/23 05:46:56;;;;;;;2.92;1.20;;;;;;;4.04;100.00;97707.06;4983637;28;20049;-71
2024/01/23 05:49:22;;;;;;;3.35;1.08;;;;;;;4.07;100.00;97706.47;4987338;28;20057;-70
2024/01/23 05:51:47;;;;;;;4.20;1.08;;;;;;;4.02;100.00;97713.59;4982757;28;20146;-72
2024/01/23 05:54:13;;;;;;;8.00;1.40;;;;;;;4.09;100.00;97731.34;4977547;28;20046;-70
2024/01/23 05:56:38;;;;;;;3.45;1.40;;;;;;;4.15;100.00;97735.59;4982787;28;20138;-70
2024/01/23 05:59:03;;;;;;;5.07;1.52;;;;;;;4.17;100.00;97736.91;4981338;28;20089;-69
2024/01/23 06:01:32;;;;;;;7.05;1.45;;;;;;;4.19;100.00;97742.03;4981810;28;20461;-70
2024/01/23 06:03:57;;;;;;;6.28;1.63;;;;;;;4.25;100.00;97740.03;4982399;28;20085;-71
2024/01/23 06:06:22;;;;;;;7.32;1.40;;;;;;;4.26;100.00;97752.50;4976042;28;20543;-72
2024/01/23 06:08:48;;;;;;;6.15;1.30;;;;;;;4.27;100.00;97757.63;4970391;28;20100;-72
2024/01/23 06:11:13;;;;;;;8.35;1.40;;;;;;;4.30;100.00;97767.84;4980503;28;20054;-71
2024/01/23 06:13:39;;;;;;;5.22;1.60;;;;;;;4.33;100.00;97780.03;4987045;28;20064;-71
2024/01/23 06:16:05;;;;;;;10.68;1.50;;;;;;;4.28;100.00;97783.63;4982686;28;20409;-70
2024/01/23 06:18:30;;;;;;;6.60;1.73;;;;;;;4.36;100.00;97785.66;4982335;28;20042;-72
2024/01/23 06:20:57;;;;;;;7.90;1.80;;;;;;;4.27;100.00;97816.47;5007050;28;20555;-70
2024/01/23 06:23:24;;;;;;;5.88;1.20;;;;;;;4.19;100.00;97824.19;4984895;28;20046;-69
2024/01/23 06:25:50;;;;;;;12.32;1.48;;;;;;;4.13;100.00;97822.66;4981860;28;20052;-71
2024/01/23 06:28:17;;;;;;;8.52;1.50;;;;;;;4.17;100.00;97820.97;4980670;28;20046;-71
2024/01/23 06:30:42;;;;;;;6.10;1.40;;;;;;;4.18;100.00;97822.59;4989879;28;20057;-70
2024/01/23 06:33:08;;;;;;;5.22;1.50;;;;;;;4.14;100.00;97827.00;4979135;28;20042;-71
2024/01/23 06:35:33;;;;;;;8.82;1.95;;;;;;;4.11;100.00;97835.72;4981293;28;20073;-72
2024/01/23 06:37:58;;;;;;;7.30;1.42;;;;;;;4.10;100.00;97836.81;4980589;28;20047;-70
2024/01/23 06:40:24;;;;;;;8.60;1.58;;;;;;;4.15;100.00;97835.94;4974628;28;20400;-71
2024/01/23 06:42:49;;;;;;;8.65;1.83;;;;;;;4.19;100.00;97835.03;4981583;28;20500;-72
2024/01/23 06:45:14;;;;;;;9.57;1.70;;;;;;;4.12;100.00;97842.72;4975456;28;20038;-70
2024/01/23 06:47:40;;;;;;;4.72;1.70;;;;;;;4.05;100.00;97850.44;4981753;28;20073;-71
2024/01/23 06:50:06;;;;;;;6.90;1.77;;;;;;;3.95;100.00;97856.03;4976600;28;20564;-71
2024/01/23 06:52:31;;;;;;;6.63;1.38;;;;;;;3.97;100.00;97862.75;4989655;28;20125;-71
2024/01/23 06:54:57;;;;;;;7.57;1.77;;;;;;;4.04;100.00;97867.81;4981350;28;20081;-70
2024/01/23 06:57:24;;;;;;;11.05;2.10;;;;;;;4.12;100.00;97874.47;4977850;28;20266;-71
2024/01/23 06:59:49;;;;;;;10.75;1.65;;;;;;;4.26;100.00;97882.66;4981158;28;20117;-70
2024/01/23 07:02:15;;;;;;;6.65;1.65;;;;;;;4.26;100.00;97896.22;4974923;28;20397;-70
2024/01/23 07:04:41;;;;;;;8.73;1.73;;;;;;;4.26;100.00;97893.50;4982423;28;20133;-69
2024/01/23 07:07:06;;;;;;;7.22;1.55;;;;;;;4.22;100.00;97904.94;4978747;28;20060;-70
2024/01/23 07:09:32;;;;;;;6.78;1.55;;;;;;;4.23;100.00;97905.75;4983841;28;20108;-71
2024/01/23 07:11:57;;;;;;;9.27;2.28;;;;;;;4.22;100.00;97904.94;4983563;28;20057;-71
2024/01/23 07:14:22;;;;;;;7.45;2.47;;;;;;;4.22;100.00;97901.44;4980501;28;20372;-70
2024/01/23 07:16:48;;;;;;;11.38;1.65;;;;;;;4.32;100.00;97901.28;4983758;28;20042;-71
2024/01/23 07:19:13;;;;;;;12.85;2.45;;;;;;;4.31;100.00;97910.50;4976538;28;20101;-71
2024/01/23 07:21:40;;;;;;;10.63;1.90;;;;;;;4.37;100.00;97917.44;4980618;28;20058;-70
2024/01/23 07:24:09;;;;;;;7.40;1.85;;;;;;;4.45;100.00;97936.88;4975966;28;20508;-69
2024/01/23 07:26:35;;;;;;;11.43;2.20;;;;;;;4.46;100.00;97946.63;4985100;28;20073;-71
2024/01/23 07:29:02;;;;;;;11.10;1.92;;;;;;;4.48;100.00;97952.56;4984980;28;20081;-71
2024/01/23 07:31:29;;;;;;;17.15;2.85;;;;;;;4.50;100.00;97956.59;4979764;28;20042;-70
2024/01/23 07:33:54;;;;;;;9.70;1.75;;;;;;;4.54;100.00;97962.25;4980477;28;20096;-72
2024/01/23 07:36:19;;;;;;;10.75;2.20;;;;;;;4.52;100.00;97976.09;4976178;28;20042;-72
2024/01/23 07:38:45;;;;;;;14.35;1.90;;;;;;;4.48;100.00;97976.97;4980841;28;20278;-70
2024/01/23 07:41:10;;;;;;;11.90;2.22;;;;;;;4.45;100.00;97981.09;4976891;28;20394;-70
2024/01/23 07:43:36;;;;;;;18.60;3.17;;;;;;;4.43;100.00;97994.16;4987904;28;20053;-70
2024/01/23 07:46:02;;;;;;;16.17;2.85;;;;;;;4.47;100.00;97994.38;4985488;28;20042;-71
2024/01/23 07:48:29;;;;;;;12.75;2.65;;;;;;;4.56;100.00;97987.97;4978353;28;20042;-71
2024/01/23 07:50:54;;;;;;;11.27;2.13;;;;;;;4.45;100.00;97983.81;4980748;28;20137;-70
2024/01/23 07:53:19;;;;;;;8.90;1.75;;;;;;;4.49;100.00;97989.44;4976969;28;20146;-72
2024/01/23 07:55:45;;;;;;;12.25;2.13;;;;;;;4.51;100.00;98001.63;4989928;28;20437;-71
2024/01/23 07:58:12;;;;;;;14.57;2.88;;;;;;;4.48;100.00;98002.19;4975327;28;20042;-70
2024/01/23 08:00:40;;;;;;;9.52;1.70;;;;;;;4.48;100.00;98009.53;4979305;28;20067;-72
2024/01/23 08:03:06;;;;;;;12.88;2.67;;;;;;;4.35;100.00;98017.31;4983051;28;20501;-70
2024/01/23 08:05:31;;;;;;;8.68;1.88;;;;;;;4.41;100.00;98026.16;4978718;28;20503;-71
2024/01/23 08:07:56;;;;;;;9.32;2.10;;;;;;;4.41;100.00;98031.59;4989175;28;20042;-71
2024/01/23 08:10:24;;;;;;;5.68;1.70;;;;;;;4.38;100.00;98032.22;4975458;28;20374;-70
2024/01/23 08:12:50;;;;;;;10.27;1.98;;;;;;;4.36;100.00;98026.28;4981079;28;20046;-70
2024/01/23 08:15:17;;;;;;;10.57;1.80;;;;;;;4.30;100.00;98028.22;4979986;28;20046;-70
2024/01/23 08:17:43;;;;;;;9.95;1.95;;;;;;;4.31;100.00;98032.56;4997843;28;20046;-71
2024/01/23 08:20:09;;;;;;;5.80;1.83;;;;;;;4.29;100.00;98029.34;4982683;28;20153;-70
2024/01/23 08:22:35;;;;;;;8.82;1.48;;;;;;;4.40;100.00;98049.78;4985056;28;20051;-72
2024/01/23 08:25:00;;;;;;;8.80;2.80;;;;;;;4.84;100.00;98064.06;4983808;28;20049;-71
2024/01/23 08:27:25;;;;;;;7.07;1.55;;;;;;;4.97;100.00;98049.75;4992429;28;20137;-70
2024/01/23 08:29:51;;;;;;;5.95;2.53;;;;;;;5.22;100.00;98047.72;5003371;28;20050;-71
2024/01/23 08:32:16;;;;;;;12.10;2.30;;;;;;;5.24;100.00;98058.25;4981833;28;20039;-72
2024/01/23 08:34:42;;;;;;;5.85;2.47;;;;;;;5.02;100.00;98064.34;4985235;28;20045;-71
2024/01/23 08:37:08;;;;;;;9.60;1.95;;;;;;;4.95;100.00;98062.81;4979791;28;20097;-70
2024/01/23 08:39:34;;;;;;;12.35;1.98;;;;;;;4.96;100.00;98067.13;4986170;28;20046;-71
2024/01/23 08:41:59;;;;;;;8.90;1.90;;;;;;;4.89;100.00;98066.69;5005008;28;20050;-71
2024/01/23 08:44:25;;;;;;;9.23;1.77;;;;;;;4.82;100.00;98058.13;5000217;28;20061;-71
2024/01/23 08:46:50;;;;;;;12.68;2.13;;;;;;;4.83;100.00;98067.09;4985564;28;20058;-70
2024/01/23 08:49:16;;;;;;;9.18;2.22;;;;;;;4.74;100.00;98072.38;4978973;28;20042;-69
2024/01/23 08:51:42;;;;;;;9.57;2.00;;;;;;;4.81;100.00;98083.69;4985001;28;20170;-71
2024/01/23 08:54:07;;;;;;;13.95;2.67;;;;;;;4.71;100.00;98072.97;4978048;28;20502;-72
2024/01/23 08:56:32;;;;;;;14.57;2.83;;;;;;;4.71;100.00;98073.75;4990839;28;20054;-69
2024/01/23 08:58:58;;;;;;;12.80;2.05;;;;;;;4.74;100.00;98081.31;4983490;28;20612;-72
2024/01/23 09:01:23;;;;;;;14.77;2.58;;;;;;;4.73;100.00;98089.75;4977622;28;20053;-71
2024/01/23 09:03:48;;;;;;;22.10;2.50;;;;;;;4.75;100.00;98091.09;4983402;28;20046;-71
2024/01/23 09:06:14;;;;;;;13.15;3.42;;;;;;;4.71;100.00;98086.53;4994026;28;20046;-72
2024/01/23 09:08:42;;;;;;;10.27;2.40;;;;;;;4.75;100.00;98090.25;4983340;28;20050;-70
2024/01/23 09:11:08;;;;;;;11.88;2.25;;;;;;;4.82;100.00;98089.91;4980559;28;20042;-70
2024/01/23 09:13:33;;;;;;;16.73;2.20;;;;;;;4.77;100.00;98090.78;4983468;28;20081;-71
2024/01/23 09:15:59;;;;;;;20.15;2.35;;;;;;;4.88;100.00;98100.41;4982981;28;20050;-71
2024/01/23 09:18:26;;;;;;;9.32;2.42;;;;;;;4.82;100.00;98100.75;4978253;28;20049;-73
2024/01/23 09:20:51;;;;;;;11.05;2.35;;;;;;;4.73;100.00;98122.31;4983807;28;20042;-73
2024/01/23 09:23:17;;;;;;;17.45;2.10;;;;;;;4.71;100.00;98114.47;4975386;28;20108;-69
2024/01/23 09:25:42;;;;;;;16.90;2.25;;;;;;;4.69;100.00;98121.31;4982919;28;20046;-71
2024/01/23 09:28:08;;;;;;;13.70;2.42;;;;;;;4.68;100.00;98133.25;4986352;28;20043;-69
2024/01/23 09:30:33;;;;;;;20.13;2.50;;;;;;;4.70;100.00;98131.88;4990959;28;20077;-71
2024/01/23 09:33:00;;;;;;;11.88;2.55;;;;;;;4.78;100.00;98141.25;4982898;28;20046;-71
2024/01/23 09:35:25;;;;;;;10.88;2.40;;;;;;;4.77;100.00;98139.63;4979479;28;20077;-70
2024/01/23 09:37:51;;;;;;;14.13;2.13;;;;;;;4.77;100.00;98143.16;4988850;28;20129;-70
2024/01/23 09:40:17;;;;;;;12.50;2.95;;;;;;;4.86;100.00;98139.78;4976449;28;20095;-70
2024/01/23 09:42:43;;;;;;;11.10;3.08;;;;;;;4.85;100.00;98141.69;4988991;28;20047;-70
2024/01/23 09:45:17;;;;;;;15.38;3.38;;;;;;;4.86;100.00;98142.50;4987140;28;20053;-72
2024/01/23 09:47:45;;;;;;;12.93;2.78;;;;;;;4.95;100.00;98141.56;4990533;28;20046;-70
2024/01/23 09:50:14;;;;;;;9.88;3.78;;;;;;;4.99;100.00;98147.22;4980832;28;20089;-69
2024/01/23 09:52:44;;;;;;;20.05;3.17;;;;;;;5.08;100.00;98153.59;4982767;28;20496;-70
2024/01/23 09:55:10;;;;;;;;;;;;;;;5.31;100.00;98167.34;4976693;28;20057;-70
2024/01/23 09:57:39;;;;;;;9.75;2.70;;;;;;;5.43;100.00;98169.63;4981722;28;20320;-71
2024/01/23 10:00:07;;;;;;;11.30;2.50;;;;;;;5.33;100.00;98171.41;4977726;28;20050;-71
2024/01/23 10:02:34;;;;;;;9.55;2.00;;;;;;;5.39;100.00;98187.63;4982878;28;20062;-72
2024/01/23 10:05:02;;;;;;;7.15;1.70;;;;;;;5.46;100.00;98179.91;4997257;28;20508;-71
2024/01/23 10:07:27;;;;;;;14.73;2.33;;;;;;;5.27;100.00;98188.06;4982925;28;20046;-71
2024/01/23 10:09:59;;;;;;;17.35;2.53;;;;;;;5.14;100.00;98192.34;5014024;28;20052;-73
2024/01/23 10:12:24;;;;;;;12.20;1.80;;;;;;;4.93;100.00;98187.22;4989772;28;20042;-73
2024/01/23 10:14:50;;;;;;;12.02;2.20;;;;;;;4.88;100.00;98189.16;4993535;28;20057;-70
2024/01/23 10:17:15;;;;;;;19.65;2.80;;;;;;;5.09;100.00;98176.09;4993379;28;20060;-71
2024/01/23 10:19:41;;;;;;;14.70;2.95;;;;;;;5.72;100.00;98189.22;4989078;28;20066;-71
2024/01/23 10:22:08;;;;;;;12.60;2.80;;;;;;;5.87;100.00;98177.28;4989857;28;20515;-71
2024/01/23 10:24:33;;;;;;;9.18;2.22;;;;;;;5.77;100.00;98182.09;4998680;28;20039;-71
2024/01/23 10:26:58;;;;;;;12.80;2.78;;;;;;;5.51;100.00;98183.34;4996459;28;20132;-71
2024/01/23 10:29:25;;;;;;;11.65;2.42;;;;;;;5.64;100.00;98159.22;4990802;28;20133;-70
2024/01/23 10:31:50;;;;;;;11.93;2.35;;;;;;;5.59;100.00;98170.16;4988186;28;20038;-70
2024/01/23 10:34:16;;;;;;;13.63;2.50;;;;;;;5.81;100.00;98164.06;5007175;28;20034;-71
2024/01/23 10:36:42;;;;;;;11.57;2.53;;;;;;;5.80;100.00;98159.72;5020990;28;20077;-71
2024/01/23 10:39:08;;;;;;;12.05;2.20;;;;;;;5.91;100.00;98164.69;4995620;28;20037;-71
2024/01/23 10:41:34;;;;;;;20.00;2.63;;;;;;;5.64;100.00;98175.53;4993083;28;20046;-71
2024/01/23 10:44:02;;;;;;;12.52;2.00;;;;;;;5.64;100.00;98168.16;4997586;28;20042;-72
2024/01/23 10:46:30;;;;;;;8.97;2.17;;;;;;;5.90;100.00;98178.59;4991343;28;20049;-72
2024/01/23 10:48:56;;;;;;;12.85;1.98;;;;;;;5.81;100.00;98166.78;4998146;28;20093;-72
2024/01/23 10:51:27;;;;;;;9.40;1.48;;;;;;;5.70;100.00;98169.69;4998398;28;20795;-72
2024/01/23 10:53:57;;;;;;;16.27;2.90;;;;;;;5.58;100.00;98174.78;5007776;28;20050;-72
2024/01/23 10:56:24;;;;;;;9.63;2.15;;;;;;;5.74;100.00;98178.03;5007546;28;21042;-71
2024/01/23 10:59:00;;;;;;;8.68;2.50;;;;;;;6.09;100.00;98173.13;5005222;28;20042;-71
2024/01/23 11:01:32;;;;;;;15.52;3.22;;;;;;;6.19;100.00;98177.53;4981329;28;20141;-70
2024/01/23 11:04:00;;;;;;;13.02;2.75;;;;;;;6.39;100.00;98173.59;4996262;28;20047;-72
2024/01/23 11:06:29;;;;;;;8.40;2.15;;;;;;;6.22;100.00;98171.50;4982689;28;20165;-72
2024/01/23 11:09:11;;;;;;;7.18;2.45;;;;;;;6.38;100.00;98172.00;4993750;28;20057;-72
2024/01/23 11:11:48;;;;;;;8.25;2.13;;;;;;;6.37;100.00;98173.09;5007888;28;20034;-71
2024/01/23 11:14:21;;;;;;;10.20;3.08;;;;;;;6.45;100.00;98169.69;4981348;28;20042;-71
2024/01/23 11:17:08;;;;;;;7.45;1.80;;;;;;;6.57;100.00;98170.00;4974745;28;20133;-72
2024/01/23 11:19:41;;;;;;;18.63;6.07;;;;;;;6.63;100.00;98159.78;4978381;28;20046;-72
2024/01/23 11:22:07;;;;;;;18.63;7.13;;;;;;;6.61;100.00;98162.81;4976085;28;20045;-71
2024/01/23 11:24:44;;;;;;;11.02;1.85;;;;;;;6.75;100.00;98154.59;4980532;28;20050;-72
2024/01/23 11:27:20;;;;;;;5.93;1.60;;;;;;;6.88;100.00;98142.88;4977072;28;20081;-72